Time;durP1;ratioP1;P1;durP2;ratioP2;P2;SDS_P1;SDS_P2;PMS_P1;PMS_P2;Temp;Humidity;BMP_temperature;BMP_pressure;BME280_temperature;BME280_humidity;BME280_pressure;Samples;Min_cycle;Max_cycle;Signal;HPM_P1;HPM_P2
2022/12/21 00:01:16;;;;;;;14.73;11.55;;;11.20;99.90;;;;;;5090791;28;20392;-69
2022/12/21 00:03:42;;;;;;;13.43;11.00;;;11.20;99.90;;;;;;5089766;28;20370;-70
2022/12/21 00:06:09;;;;;;;14.53;11.40;;;11.20;99.90;;;;;;5091439;28;20424;-70
2022/12/21 00:08:41;;;;;;;17.17;12.90;;;11.20;99.90;;;;;;5091414;28;20382;-72
2022/12/21 00:11:07;;;;;;;18.70;13.60;;;11.20;99.90;;;;;;5090630;28;20560;-72
2022/12/21 00:13:33;;;;;;;16.15;13.30;;;11.20;99.90;;;;;;5091969;28;20402;-71
2022/12/21 00:16:08;;;;;;;17.23;13.88;;;11.20;99.90;;;;;;5092057;28;20758;-72
2022/12/21 00:18:36;;;;;;;17.67;13.93;;;11.30;99.90;;;;;;5091306;28;20382;-71
2022/12/21 00:21:05;;;;;;;19.55;14.43;;;11.30;99.90;;;;;;5090321;28;20980;-71
2022/12/21 00:23:31;;;;;;;17.48;13.75;;;11.30;99.90;;;;;;5091391;28;20455;-71
2022/12/21 00:26:02;;;;;;;18.80;14.20;;;11.30;99.90;;;;;;5091318;28;20393;-72
2022/12/21 00:28:27;;;;;;;21.13;14.73;;;11.30;99.90;;;;;;5094813;28;20400;-72
2022/12/21 00:30:54;;;;;;;22.60;14.83;;;11.30;99.90;;;;;;5091372;28;20814;-72
2022/12/21 00:33:20;;;;;;;20.90;14.90;;;11.30;99.90;;;;;;5100460;28;20382;-71
2022/12/21 00:35:50;;;;;;;21.13;15.50;;;11.20;99.90;;;;;;5105189;28;20386;-73
2022/12/21 00:38:17;;;;;;;23.38;16.92;;;11.10;99.90;;;;;;5098002;28;20382;-72
2022/12/21 00:40:43;;;;;;;26.77;17.38;;;11.00;99.90;;;;;;5098241;28;20955;-73
2022/12/21 00:43:09;;;;;;;21.85;17.20;;;11.00;99.90;;;;;;5097307;28;20407;-73
2022/12/21 00:45:34;;;;;;;25.90;18.00;;;11.00;99.90;;;;;;5098548;28;20370;-73
2022/12/21 00:48:00;;;;;;;23.58;17.00;;;11.00;99.90;;;;;;5098662;28;20393;-71
2022/12/21 00:50:26;;;;;;;21.52;16.25;;;11.00;99.90;;;;;;5102842;28;20390;-72
2022/12/21 00:52:51;;;;;;;22.17;14.80;;;11.00;99.90;;;;;;5115813;28;20401;-73
2022/12/21 00:55:17;;;;;;;19.50;14.73;;;11.10;99.90;;;;;;5114423;28;20432;-72
2022/12/21 00:57:43;;;;;;;19.33;15.20;;;11.10;99.90;;;;;;5112572;28;20464;-73
2022/12/21 01:00:10;;;;;;;19.88;14.80;;;11.10;99.90;;;;;;5108526;28;20374;-74
2022/12/21 01:02:36;;;;;;;19.80;14.43;;;11.20;99.90;;;;;;5107864;28;20472;-72
2022/12/21 01:05:02;;;;;;;19.65;14.50;;;11.10;99.90;;;;;;5103488;28;20388;-72
2022/12/21 01:07:28;;;;;;;23.83;15.23;;;11.10;99.90;;;;;;5097505;28;20382;-71
2022/12/21 01:09:53;;;;;;;23.30;15.60;;;11.00;99.90;;;;;;5097583;28;20373;-72
2022/12/21 01:12:19;;;;;;;22.37;16.47;;;10.90;99.90;;;;;;5097124;28;20386;-74
2022/12/21 01:14:45;;;;;;;24.52;16.42;;;10.90;99.90;;;;;;5098619;28;20480;-72
2022/12/21 01:17:10;;;;;;;20.90;16.40;;;10.90;99.90;;;;;;5107729;28;20406;-72
2022/12/21 01:19:36;;;;;;;21.08;15.40;;;10.90;99.90;;;;;;5108985;28;20407;-74
2022/12/21 01:22:02;;;;;;;26.50;16.42;;;10.90;99.90;;;;;;5097571;28;20476;-74
2022/12/21 01:24:27;;;;;;;25.40;17.13;;;10.90;99.90;;;;;;5097389;28;20443;-73
2022/12/21 01:26:53;;;;;;;25.50;15.32;;;10.90;99.90;;;;;;5097780;28;20397;-73
2022/12/21 01:29:18;;;;;;;24.38;16.65;;;11.10;99.90;;;;;;5098181;28;20393;-72
2022/12/21 01:31:44;;;;;;;21.20;16.05;;;11.10;99.90;;;;;;5101309;28;20523;-73
2022/12/21 01:34:10;;;;;;;26.17;16.30;;;11.10;99.90;;;;;;5101171;28;20441;-72
2022/12/21 01:36:35;;;;;;;26.13;17.80;;;11.00;99.90;;;;;;5101393;28;20393;-72
2022/12/21 01:39:01;;;;;;;26.58;18.48;;;11.00;99.90;;;;;;5103091;28;20410;-73
2022/12/21 01:41:28;;;;;;;28.40;18.30;;;11.00;99.90;;;;;;5097092;28;20435;-72
2022/12/21 01:43:56;;;;;;;29.58;19.40;;;11.00;99.90;;;;;;5096840;28;20890;-72
2022/12/21 01:46:26;;;;;;;27.27;19.10;;;11.00;99.90;;;;;;5096863;28;20390;-71
2022/12/21 01:49:03;;;;;;;28.25;19.50;;;10.90;99.90;;;;;;5096781;28;20377;-72
2022/12/21 01:51:31;;;;;;;30.45;20.00;;;10.80;99.90;;;;;;5090792;28;20394;-72
2022/12/21 01:54:13;;;;;;;27.48;18.30;;;10.80;99.90;;;;;;5093648;28;20405;-72
2022/12/21 01:56:42;;;;;;;32.80;18.75;;;11.00;99.90;;;;;;5093770;28;20478;-74
2022/12/21 01:59:18;;;;;;;32.45;19.50;;;11.00;99.90;;;;;;5093446;28;20385;-72
2022/12/21 02:01:44;;;;;;;29.55;20.15;;;10.80;99.90;;;;;;5092834;28;20370;-71
2022/12/21 02:04:10;;;;;;;32.30;20.90;;;10.80;99.90;;;;;;5093266;28;20385;-73
2022/12/21 02:06:48;;;;;;;32.77;21.40;;;10.80;99.90;;;;;;5093224;28;20389;-73
2022/12/21 02:09:15;;;;;;;35.03;21.73;;;10.70;99.90;;;;;;5094620;28;20374;-72
2022/12/21 02:11:42;;;;;;;38.25;22.75;;;10.70;99.90;;;;;;5092574;28;20381;-73
2022/12/21 02:14:14;;;;;;;34.47;21.60;;;10.70;99.90;;;;;;5093125;28;20432;-73
2022/12/21 02:17:06;;;;;;;32.25;21.67;;;10.70;99.90;;;;;;5093663;28;20370;-72
2022/12/21 02:19:53;;;;;;;33.47;21.88;;;10.70;99.90;;;;;;5093141;28;20389;-71
2022/12/21 02:22:32;;;;;;;36.65;21.88;;;10.70;99.90;;;;;;5092290;28;21033;-71
2022/12/21 02:25:07;;;;;;;32.70;21.55;;;10.70;99.90;;;;;;5093046;28;20382;-72
2022/12/21 02:27:44;;;;;;;37.40;22.97;;;10.70;99.90;;;;;;5093483;28;20374;-72
2022/12/21 02:30:23;;;;;;;44.72;23.02;;;10.70;99.90;;;;;;5093089;28;20427;-72
2022/12/21 02:33:39;;;;;;;39.40;21.55;;;10.70;99.90;;;;;;5092866;28;20412;-72
2022/12/21 02:36:26;;;;;;;36.53;21.40;;;10.70;99.90;;;;;;5058576;28;20395;-72
2022/12/21 02:38:59;;;;;;;37.70;20.93;;;10.70;99.90;;;;;;5093396;28;20929;-73
2022/12/21 02:41:47;;;;;;;39.45;22.88;;;10.70;99.90;;;;;;5092315;28;20382;-71
2022/12/21 02:44:52;;;;;;;46.55;23.65;;;10.70;99.90;;;;;;5092776;28;20409;-73
2022/12/21 02:47:27;;;;;;;38.78;22.90;;;10.70;99.90;;;;;;5029856;28;20430;-73
2022/12/21 02:50:03;;;;;;;40.60;23.13;;;10.70;99.90;;;;;;5085662;28;20397;-71
2022/12/21 02:52:53;;;;;;;47.08;23.08;;;10.70;99.90;;;;;;5091998;28;20381;-69
2022/12/21 02:55:18;;;;;;;43.83;24.63;;;10.70;99.90;;;;;;5092525;28;20467;-71
2022/12/21 02:57:45;;;;;;;44.77;25.37;;;10.70;99.90;;;;;;5092415;28;20782;-72
2022/12/21 03:00:18;;;;;;;52.60;28.00;;;10.60;99.90;;;;;;5092096;28;20877;-71
2022/12/21 03:06:00;;;;;;;53.92;28.05;;;10.60;99.90;;;;;;5092672;28;20372;-71
2022/12/21 03:08:44;;;;;;;54.53;28.63;;;10.60;99.90;;;;;;5092624;28;20440;-72
2022/12/21 03:11:10;;;;;;;59.10;29.57;;;10.60;99.90;;;;;;5091945;28;20384;-71
2022/12/21 03:13:48;;;;;;;58.13;28.75;;;10.70;99.90;;;;;;5094237;28;20408;-71
2022/12/21 03:16:25;;;;;;;43.63;25.60;;;10.70;99.90;;;;;;5098927;28;20409;-70
2022/12/21 03:19:08;;;;;;;45.03;25.77;;;10.60;99.90;;;;;;5096028;28;20429;-72
2022/12/21 03:21:47;;;;;;;40.95;24.30;;;10.70;99.90;;;;;;5092721;28;20386;-71
2022/12/21 03:24:51;;;;;;;54.03;25.50;;;10.70;99.90;;;;;;5104723;28;20386;-73
2022/12/21 03:27:21;;;;;;;49.97;24.85;;;10.60;99.90;;;;;;5096377;28;20831;-71
2022/12/21 03:29:55;;;;;;;46.70;24.92;;;10.60;99.90;;;;;;5092520;28;20386;-71
2022/12/21 03:32:52;;;;;;;44.88;25.67;;;10.60;99.90;;;;;;5091605;28;20904;-71
2022/12/21 03:35:26;;;;;;;48.42;26.83;;;10.60;99.90;;;;;;5081244;28;20871;-70
2022/12/21 03:37:54;;;;;;;43.63;24.13;;;10.60;99.90;;;;;;5092902;28;20746;-71
2022/12/21 03:40:29;;;;;;;52.95;26.27;;;10.60;99.90;;;;;;5092656;28;20435;-71
2022/12/21 03:43:18;;;;;;;50.55;26.70;;;10.50;99.90;;;;;;5091688;28;20428;-70
2022/12/21 03:45:50;;;;;;;45.33;24.83;;;10.50;99.90;;;;;;5091355;28;20390;-72
2022/12/21 03:48:30;;;;;;;41.55;24.20;;;10.50;99.90;;;;;;5093412;28;20382;-72
2022/12/21 03:51:01;;;;;;;42.13;23.23;;;10.60;99.90;;;;;;5091755;28;20755;-71
2022/12/21 03:53:48;;;;;;;43.95;24.77;;;10.60;99.90;;;;;;5093579;28;20753;-73
2022/12/21 03:56:23;;;;;;;45.88;24.65;;;10.60;99.90;;;;;;5092480;28;20382;-72
2022/12/21 03:58:49;;;;;;;46.30;24.77;;;10.60;99.90;;;;;;5094422;28;20482;-71
2022/12/21 04:01:34;;;;;;;45.85;25.30;;;10.50;99.90;;;;;;5093272;28;20436;-73
2022/12/21 04:04:15;;;;;;;49.28;26.98;;;10.50;99.90;;;;;;5093791;28;20432;-72
2022/12/21 04:06:42;;;;;;;47.05;25.98;;;10.50;99.90;;;;;;5077036;28;20406;-73
2022/12/21 04:09:09;;;;;;;45.33;26.23;;;10.50;99.90;;;;;;5098529;28;20783;-73
2022/12/21 04:14:20;;;;;;;51.25;25.83;;;10.60;99.90;;;;;;5096141;28;20452;-73
2022/12/21 04:16:45;;;;;;;46.78;26.58;;;10.60;99.90;;;;;;5095884;28;20381;-73
2022/12/21 04:21:55;;;;;;;54.87;27.37;;;10.60;99.90;;;;;;5094038;28;20376;-72
2022/12/21 04:29:56;;;;;;;47.33;25.80;;;10.50;99.90;;;;;;5081646;28;20420;-73
2022/12/21 04:32:22;;;;;;;51.35;26.15;;;10.50;99.90;;;;;;5097712;28;20386;-72
2022/12/21 04:34:47;;;;;;;51.33;27.03;;;10.50;99.90;;;;;;5102331;28;20401;-72
2022/12/21 04:37:36;;;;;;;67.80;27.80;;;10.60;99.90;;;;;;5099391;28;20801;-73
2022/12/21 04:39:59;;;;;;;59.60;27.88;;;10.60;99.90;;;;;;5094940;28;20477;-72
2022/12/21 04:42:26;;;;;;;53.05;26.20;;;10.60;99.90;;;;;;5097342;28;20377;-73
2022/12/21 04:44:51;;;;;;;56.50;26.50;;;10.60;99.90;;;;;;5100983;28;20530;-72
2022/12/21 04:47:17;;;;;;;67.13;27.67;;;10.60;99.90;;;;;;5100695;28;20398;-72
2022/12/21 04:49:43;;;;;;;50.90;24.38;;;10.50;99.90;;;;;;5102497;28;20390;-72
2022/12/21 04:52:09;;;;;;;51.58;24.70;;;10.50;99.90;;;;;;5092298;28;20955;-72
2022/12/21 04:54:35;;;;;;;54.40;23.80;;;10.60;99.90;;;;;;5095284;28;20402;-72
2022/12/21 04:57:00;;;;;;;51.03;22.80;;;10.50;99.90;;;;;;5094064;28;20803;-71
2022/12/21 04:59:26;;;;;;;53.92;23.80;;;10.50;99.90;;;;;;5093099;28;20464;-73
2022/12/21 05:01:51;;;;;;;46.75;22.60;;;10.60;99.90;;;;;;5090965;28;20801;-73
2022/12/21 05:04:17;;;;;;;51.00;22.77;;;10.60;99.90;;;;;;5074315;28;20911;-73
2022/12/21 05:06:43;;;;;;;52.28;22.65;;;10.60;99.90;;;;;;5084538;28;20441;-73
2022/12/21 05:09:10;;;;;;;54.40;23.03;;;10.60;99.90;;;;;;5074635;28;20753;-73
2022/12/21 05:11:35;;;;;;;46.88;22.20;;;10.60;99.90;;;;;;5074894;28;20742;-73
2022/12/21 05:14:01;;;;;;;49.15;22.52;;;10.50;99.90;;;;;;5078936;28;20455;-73
2022/12/21 05:16:26;;;;;;;52.27;23.00;;;10.50;99.90;;;;;;5087499;28;20395;-73
2022/12/21 05:18:52;;;;;;;56.07;23.17;;;10.60;99.90;;;;;;5075956;28;20396;-73
2022/12/21 05:21:18;;;;;;;47.17;21.73;;;10.60;99.90;;;;;;5081275;28;20391;-72
2022/12/21 05:23:44;;;;;;;49.60;22.80;;;10.60;99.90;;;;;;5077654;28;20398;-72
2022/12/21 05:26:11;;;;;;;41.88;20.80;;;10.50;99.90;;;;;;5093590;28;20408;-73
2022/12/21 05:28:36;;;;;;;44.13;22.95;;;10.50;99.90;;;;;;5095510;28;20720;-76
2022/12/21 05:31:06;;;;;;;44.97;23.02;;;10.50;99.90;;;;;;5096147;28;20412;-74
2022/12/21 05:33:31;;;;;;;44.50;22.13;;;10.60;99.90;;;;;;5095120;28;20382;-73
2022/12/21 05:36:01;;;;;;;46.58;22.70;;;10.60;99.90;;;;;;5086155;28;20397;-79
2022/12/21 05:38:26;;;;;;;42.07;23.63;;;10.50;99.90;;;;;;5093312;28;20466;-71
2022/12/21 05:40:52;;;;;;;39.97;22.03;;;10.60;99.90;;;;;;5094039;28;20382;-71
2022/12/21 05:43:18;;;;;;;39.43;23.53;;;10.60;99.90;;;;;;5094594;28;20374;-71
2022/12/21 05:45:44;;;;;;;38.23;22.63;;;10.60;99.90;;;;;;5095170;28;20431;-73
2022/12/21 05:48:10;;;;;;;40.63;23.17;;;10.60;99.90;;;;;;5094315;28;20757;-73
2022/12/21 05:50:38;;;;;;;43.92;24.30;;;10.60;99.90;;;;;;5094994;28;20485;-73
2022/12/21 05:53:04;;;;;;;44.45;25.25;;;10.60;99.90;;;;;;5098148;28;20382;-72
2022/12/21 05:55:30;;;;;;;51.47;26.55;;;10.60;99.90;;;;;;5109654;28;20393;-70
2022/12/21 05:57:56;;;;;;;46.80;26.48;;;10.60;99.90;;;;;;5113084;28;20392;-72
2022/12/21 06:00:21;;;;;;;49.97;27.48;;;10.50;99.90;;;;;;5094455;28;20511;-73
2022/12/21 06:02:47;;;;;;;52.00;28.08;;;10.50;99.90;;;;;;5093211;28;20390;-71
2022/12/21 06:05:12;;;;;;;51.22;25.42;;;10.50;99.90;;;;;;5093359;28;20382;-71
2022/12/21 06:07:38;;;;;;;50.13;25.67;;;10.40;99.90;;;;;;5093721;28;20397;-73
2022/12/21 06:10:04;;;;;;;44.20;25.33;;;10.40;99.90;;;;;;5093487;28;20378;-72
2022/12/21 06:12:30;;;;;;;45.85;25.98;;;10.40;99.90;;;;;;5093126;28;20889;-72
2022/12/21 06:14:56;;;;;;;49.30;27.10;;;10.40;99.90;;;;;;5094015;28;20512;-73
2022/12/21 06:17:21;;;;;;;46.67;25.93;;;10.50;99.90;;;;;;5093602;28;20430;-71
2022/12/21 06:19:47;;;;;;;47.10;27.00;;;10.50;99.90;;;;;;5094004;28;20382;-72
2022/12/21 06:22:12;;;;;;;45.20;25.73;;;10.50;99.90;;;;;;5091471;28;20506;-71
2022/12/21 06:24:38;;;;;;;46.03;26.45;;;10.50;99.90;;;;;;5093490;28;20455;-72
2022/12/21 06:27:04;;;;;;;46.88;26.80;;;10.50;99.90;;;;;;5093380;28;20393;-72
2022/12/21 06:29:29;;;;;;;50.20;26.55;;;10.50;99.90;;;;;;5093485;28;20470;-72
2022/12/21 06:31:55;;;;;;;48.45;26.85;;;10.50;99.90;;;;;;5093069;28;20401;-72
2022/12/21 06:34:20;;;;;;;49.90;26.10;;;10.50;99.90;;;;;;5094484;28;20498;-72
2022/12/21 06:36:47;;;;;;;47.87;25.73;;;10.50;99.90;;;;;;5096912;28;20477;-72
2022/12/21 06:39:12;;;;;;;40.10;24.88;;;10.50;99.90;;;;;;5109555;28;20390;-72
2022/12/21 06:41:38;;;;;;;47.53;26.30;;;10.50;99.90;;;;;;5107836;28;20390;-72
2022/12/21 06:44:03;;;;;;;49.97;27.33;;;10.50;99.90;;;;;;5107550;28;20398;-72
2022/12/21 06:46:29;;;;;;;45.40;25.13;;;10.50;99.90;;;;;;5106703;28;20406;-72
2022/12/21 06:48:54;;;;;;;50.70;25.80;;;10.50;99.90;;;;;;5094678;28;20390;-74
2022/12/21 06:51:23;;;;;;;44.13;26.60;;;10.50;99.90;;;;;;5093659;28;20423;-72
2022/12/21 06:53:51;;;;;;;47.22;25.77;;;10.50;99.90;;;;;;5093665;28;20408;-72
2022/12/21 06:56:21;;;;;;;46.45;26.38;;;10.60;99.90;;;;;;5094308;28;20386;-70
2022/12/21 06:58:48;;;;;;;48.42;26.65;;;10.60;99.90;;;;;;5093672;28;20785;-72
2022/12/21 07:01:17;;;;;;;49.83;27.42;;;10.60;99.90;;;;;;5093023;28;20413;-73
2022/12/21 07:03:43;;;;;;;46.47;24.85;;;10.60;99.90;;;;;;5093786;28;20389;-73
2022/12/21 07:06:09;;;;;;;41.78;24.52;;;10.60;99.90;;;;;;5093715;28;20378;-73
2022/12/21 07:08:36;;;;;;;40.40;25.80;;;10.60;99.90;;;;;;5093446;28;20400;-72
2022/12/21 07:11:04;;;;;;;40.88;22.77;;;10.70;99.90;;;;;;5092768;28;20381;-72
2022/12/21 07:13:30;;;;;;;42.08;23.50;;;10.70;99.90;;;;;;5092954;28;20386;-72
2022/12/21 07:15:56;;;;;;;41.13;26.45;;;10.70;99.90;;;;;;5093656;28;20382;-73
2022/12/21 07:18:23;;;;;;;42.63;23.88;;;10.70;99.90;;;;;;5099254;28;20393;-73
2022/12/21 07:20:49;;;;;;;37.22;22.20;;;10.70;99.90;;;;;;5096152;28;20414;-72
2022/12/21 07:23:14;;;;;;;40.40;23.10;;;10.60;99.90;;;;;;5094396;28;20994;-72
2022/12/21 07:25:40;;;;;;;40.07;23.70;;;10.70;99.90;;;;;;5095944;28;20439;-72
2022/12/21 07:28:06;;;;;;;36.23;23.03;;;10.70;99.90;;;;;;5095574;28;20382;-72
2022/12/21 07:30:31;;;;;;;35.87;21.87;;;10.70;99.90;;;;;;5092351;28;20743;-72
2022/12/21 07:32:57;;;;;;;31.40;20.77;;;10.70;99.90;;;;;;5091178;28;20382;-72
2022/12/21 07:35:24;;;;;;;34.33;20.87;;;10.70;99.90;;;;;;5092134;28;20543;-73
2022/12/21 07:37:50;;;;;;;33.65;19.63;;;10.70;99.90;;;;;;5092486;28;20412;-73
2022/12/21 07:40:17;;;;;;;31.45;20.15;;;10.70;99.90;;;;;;5092133;28;20394;-72
2022/12/21 07:42:44;;;;;;;30.02;18.45;;;10.80;99.90;;;;;;5091413;28;20382;-72
2022/12/21 07:45:10;;;;;;;26.42;16.80;;;10.70;99.90;;;;;;5091966;28;20382;-72
2022/12/21 07:47:36;;;;;;;27.80;17.90;;;10.70;99.90;;;;;;5091227;28;20436;-72
2022/12/21 07:50:03;;;;;;;26.73;19.40;;;10.70;99.90;;;;;;5091985;28;20390;-72
2022/12/21 07:52:30;;;;;;;20.70;12.80;;;10.80;99.90;;;;;;5091747;28;20386;-73
2022/12/21 07:54:55;;;;;;;18.35;11.55;;;10.80;99.90;;;;;;5090523;28;20416;-72
2022/12/21 07:57:21;;;;;;;16.30;10.80;;;11.00;99.90;;;;;;5091927;28;20378;-72
2022/12/21 07:59:46;;;;;;;15.07;10.53;;;10.90;99.90;;;;;;5092411;28;20460;-73
2022/12/21 08:02:12;;;;;;;18.40;12.50;;;11.00;99.90;;;;;;5091339;28;20456;-71
2022/12/21 08:04:37;;;;;;;14.02;9.77;;;11.10;99.90;;;;;;5091888;28;20777;-73
2022/12/21 08:07:03;;;;;;;17.35;11.43;;;11.40;99.90;;;;;;5091914;28;20463;-73
2022/12/21 08:09:29;;;;;;;17.00;11.60;;;11.30;99.90;;;;;;5092210;28;20500;-73
2022/12/21 08:11:54;;;;;;;17.57;12.17;;;11.20;99.90;;;;;;5091278;28;20390;-73
2022/12/21 08:14:20;;;;;;;19.87;12.50;;;11.10;99.90;;;;;;5091924;28;20405;-72
2022/12/21 08:16:45;;;;;;;20.38;13.20;;;11.10;99.90;;;;;;5091870;28;20393;-73
2022/12/21 08:19:11;;;;;;;18.90;13.13;;;11.10;99.90;;;;;;5091807;28;20564;-72
2022/12/21 08:21:37;;;;;;;20.65;14.20;;;11.00;99.90;;;;;;5089916;28;20432;-72
2022/12/21 08:24:03;;;;;;;19.33;13.23;;;11.00;99.90;;;;;;5092390;28;20909;-72
2022/12/21 08:26:29;;;;;;;22.73;14.23;;;11.00;99.90;;;;;;5101157;28;20410;-71
2022/12/21 08:28:55;;;;;;;24.45;15.38;;;11.00;99.90;;;;;;5102514;28;20389;-72
2022/12/21 08:31:20;;;;;;;31.60;17.60;;;11.30;99.90;;;;;;5093339;28;20389;-71
2022/12/21 08:33:46;;;;;;;28.23;17.73;;;11.40;99.90;;;;;;5102616;28;20398;-71
2022/12/21 08:36:14;;;;;;;24.93;16.50;;;11.20;99.90;;;;;;5101437;28;20374;-73
2022/12/21 08:38:39;;;;;;;28.33;16.83;;;11.20;99.90;;;;;;5091652;28;20459;-72
2022/12/21 08:41:05;;;;;;;27.75;17.27;;;11.20;99.90;;;;;;5090730;28;20850;-72
2022/12/21 08:43:34;;;;;;;28.20;16.48;;;11.00;99.90;;;;;;5090478;28;20373;-71
2022/12/21 08:46:03;;;;;;;36.28;16.60;;;10.90;99.90;;;;;;5091216;28;20754;-73
2022/12/21 08:48:29;;;;;;;36.08;16.23;;;10.80;99.90;;;;;;5091730;28;20406;-73
2022/12/21 08:50:54;;;;;;;29.02;15.15;;;10.70;99.90;;;;;;5101753;22;20525;-78
2022/12/21 08:53:20;;;;;;;34.20;16.50;;;10.70;99.90;;;;;;5089606;28;20473;-77
2022/12/21 08:55:48;;;;;;;29.03;16.40;;;10.70;99.90;;;;;;5090761;28;20378;-77
2022/12/21 08:58:14;;;;;;;31.27;17.17;;;10.70;99.90;;;;;;5093346;28;20904;-76
2022/12/21 09:00:39;;;;;;;35.72;16.40;;;10.70;99.90;;;;;;5097307;28;20381;-75
2022/12/21 09:03:07;;;;;;;38.42;18.58;;;10.70;99.90;;;;;;5096131;28;20393;-78
2022/12/21 09:05:33;;;;;;;41.27;19.43;;;10.70;99.90;;;;;;5096708;28;20373;-77
2022/12/21 09:07:59;;;;;;;32.67;17.60;;;10.80;99.90;;;;;;5094985;28;20377;-77
2022/12/21 09:10:25;;;;;;;39.50;18.60;;;10.80;99.90;;;;;;5095807;28;20386;-76
2022/12/21 09:12:51;;;;;;;36.93;17.83;;;10.80;99.90;;;;;;5097620;28;20434;-78
2022/12/21 09:15:16;;;;;;;35.17;17.37;;;10.90;99.90;;;;;;5094952;28;20762;-77
2022/12/21 09:17:42;;;;;;;31.00;16.17;;;10.90;99.90;;;;;;5095813;28;20382;-77
2022/12/21 09:20:08;;;;;;;31.00;16.43;;;11.00;99.90;;;;;;5095369;28;20431;-76
2022/12/21 09:22:34;;;;;;;29.20;15.80;;;11.00;99.90;;;;;;5093783;28;20977;-77
2022/12/21 09:24:59;;;;;;;36.28;17.45;;;11.10;99.90;;;;;;5094633;28;20488;-76
2022/12/21 09:27:26;;;;;;;52.42;21.55;;;11.00;99.90;;;;;;5095873;28;20420;-77
2022/12/21 09:29:51;;;;;;;51.55;21.75;;;10.90;99.90;;;;;;5095949;28;20830;-77
2022/12/21 09:32:17;;;;;;;51.93;22.23;;;10.80;99.90;;;;;;5094785;28;20408;-77
2022/12/21 09:34:42;;;;;;;51.80;22.43;;;10.70;99.90;;;;;;5094818;28;20920;-76
2022/12/21 09:37:08;;;;;;;50.30;22.70;;;10.70;99.90;;;;;;5095362;28;20374;-77
2022/12/21 09:39:33;;;;;;;43.03;20.87;;;10.70;99.90;;;;;;5095453;28;20864;-75
2022/12/21 09:42:31;;;;;;;44.07;21.17;;;10.60;99.90;;;;;;5094742;28;20382;-76
2022/12/21 09:45:07;;;;;;;45.33;22.10;;;10.70;99.90;;;;;;5102183;28;20385;-76
2022/12/21 09:47:40;;;;;;;42.10;20.98;;;10.80;99.90;;;;;;5101542;28;20386;-77
2022/12/21 09:50:21;;;;;;;41.97;21.47;;;10.80;99.90;;;;;;5101590;28;20394;-76
2022/12/21 09:52:54;;;;;;;40.80;20.40;;;10.90;99.90;;;;;;5096236;28;20522;-76
2022/12/21 09:55:22;;;;;;;38.28;21.08;;;11.00;99.90;;;;;;5092545;28;20743;-77
2022/12/21 09:57:53;;;;;;;41.65;20.48;;;11.20;97.40;;;;;;5094316;28;20958;-76
2022/12/21 10:00:22;;;;;;;36.17;20.20;;;11.40;96.00;;;;;;5094584;28;20927;-78
2022/12/21 10:03:23;;;;;;;40.63;21.10;;;11.30;93.00;;;;;;5093109;28;20382;-78
2022/12/21 10:06:13;;;;;;;36.40;19.27;;;11.20;92.90;;;;;;5094029;28;20386;-77
2022/12/21 10:09:13;;;;;;;39.22;19.30;;;10.90;96.70;;;;;;5094046;28;20362;-77
2022/12/21 10:12:01;;;;;;;39.63;22.08;;;10.60;99.90;;;;;;5091209;28;20391;-77
2022/12/21 10:14:52;;;;;;;49.85;26.98;;;10.60;99.90;;;;;;5093468;28;20501;-75
2022/12/21 10:17:39;;;;;;;47.28;24.88;;;10.50;99.90;;;;;;5093786;28;20367;-77
2022/12/21 10:20:16;;;;;;;48.92;27.27;;;10.50;99.90;;;;;;5093537;28;20731;-76
2022/12/21 10:22:50;;;;;;;40.60;23.73;;;10.80;99.90;;;;;;5093104;28;20377;-77
2022/12/21 10:25:22;;;;;;;40.72;22.13;;;10.90;95.10;;;;;;5097238;28;20385;-76
2022/12/21 10:28:00;;;;;;;36.33;21.03;;;10.80;95.10;;;;;;5104489;28;20474;-76
2022/12/21 10:30:25;;;;;;;35.20;19.48;;;10.90;94.80;;;;;;5106314;28;20450;-77
2022/12/21 10:32:51;;;;;;;28.15;15.98;;;10.90;92.80;;;;;;5103882;28;20699;-77
2022/12/21 10:35:20;;;;;;;32.30;16.90;;;10.90;88.30;;;;;;5101995;28;20405;-77
2022/12/21 10:37:50;;;;;;;28.37;16.30;;;10.90;83.50;;;;;;5101246;28;20374;-77
2022/12/21 10:40:16;;;;;;;31.27;17.13;;;10.90;81.50;;;;;;5099298;28;20365;-77
2022/12/21 10:42:45;;;;;;;29.70;16.63;;;11.00;81.10;;;;;;5097592;28;20386;-77
2022/12/21 10:45:15;;;;;;;37.50;17.90;;;11.00;80.30;;;;;;5096006;28;20382;-77
2022/12/21 10:47:44;;;;;;;31.98;17.75;;;11.00;82.20;;;;;;5092914;28;20447;-77
2022/12/21 10:50:15;;;;;;;38.60;17.75;;;11.00;79.70;;;;;;5093674;28;20394;-76
2022/12/21 10:52:42;;;;;;;29.58;16.60;;;11.10;78.10;;;;;;5094606;28;20374;-77
2022/12/21 10:55:20;;;;;;;27.00;15.73;;;11.10;76.80;;;;;;5093149;28;20434;-76
2022/12/21 10:57:53;;;;;;;30.85;16.00;;;11.10;75.80;;;;;;5092998;28;20389;-76
2022/12/21 11:00:23;;;;;;;32.15;14.48;;;11.10;75.10;;;;;;5092299;28;20897;-77
2022/12/21 11:02:51;;;;;;;33.97;15.85;;;11.10;73.90;;;;;;5092300;28;20816;-77
2022/12/21 11:05:38;;;;;;;26.65;15.07;;;11.00;75.80;;;;;;5095308;28;20393;-78
2022/12/21 11:08:13;;;;;;;27.27;14.32;;;11.10;77.70;;;;;;5096152;28;20440;-77
2022/12/21 11:10:40;;;;;;;25.63;12.20;;;11.20;74.50;;;;;;5095150;28;20374;-77
2022/12/21 11:13:06;;;;;;;26.30;12.65;;;11.20;71.10;;;;;;5095087;28;20378;-77
2022/12/21 11:15:33;;;;;;;25.27;13.25;;;11.20;71.60;;;;;;5095441;28;20397;-77
2022/12/21 11:17:59;;;;;;;23.63;11.43;;;11.20;75.60;;;;;;5095676;28;20430;-76
2022/12/21 11:20:26;;;;;;;22.35;12.32;;;11.30;72.40;;;;;;5093492;28;20422;-76
2022/12/21 11:22:54;;;;;;;22.67;11.15;;;11.40;74.40;;;;;;5092742;28;20406;-77
2022/12/21 11:25:25;;;;;;;22.52;10.60;;;11.50;70.30;;;;;;5092613;28;20424;-77
2022/12/21 11:27:54;;;;;;;25.92;12.00;;;11.60;70.40;;;;;;5092501;28;20396;-77
2022/12/21 11:30:22;;;;;;;25.48;13.73;;;11.70;68.20;;;;;;5092188;28;20374;-78
2022/12/21 11:32:50;;;;;;;29.23;15.45;;;11.70;69.20;;;;;;5091361;28;20398;-77
2022/12/21 11:35:29;;;;;;;28.67;15.38;;;11.70;66.80;;;;;;5093033;28;20882;-75
2022/12/21 11:38:14;;;;;;;26.20;16.40;;;11.60;67.70;;;;;;5092606;28;20434;-76
2022/12/21 11:40:53;;;;;;;32.00;17.92;;;11.70;68.10;;;;;;5091691;28;20715;-77
2022/12/21 11:43:19;;;;;;;36.22;17.42;;;11.60;69.30;;;;;;5095140;28;20427;-77
2022/12/21 11:46:03;;;;;;;27.98;16.60;;;11.60;66.20;;;;;;5095552;28;20785;-76
2022/12/21 11:48:43;;;;;;;30.38;13.90;;;11.60;67.30;;;;;;5093562;28;20439;-75
2022/12/21 11:51:22;;;;;;;27.52;13.93;;;11.50;65.20;;;;;;5093727;28;20484;-76
2022/12/21 11:54:05;;;;;;;38.45;15.32;;;11.30;68.20;;;;;;5094361;28;20490;-76
2022/12/21 11:56:48;;;;;;;34.55;14.63;;;11.20;69.30;;;;;;5094222;28;20382;-77
2022/12/21 11:59:50;;;;;;;36.63;15.33;;;11.20;69.80;;;;;;5094359;28;20777;-76
2022/12/21 12:02:46;;;;;;;34.22;17.15;;;11.20;68.60;;;;;;5095992;28;20469;-76
2022/12/21 12:05:42;;;;;;;33.30;14.60;;;11.20;68.40;;;;;;5093988;28;20447;-76
2022/12/21 12:08:24;;;;;;;33.28;16.40;;;11.20;67.90;;;;;;5104988;28;20844;-78
2022/12/21 12:10:52;;;;;;;30.40;13.80;;;11.10;70.60;;;;;;5113358;28;20419;-76
2022/12/21 12:13:51;;;;;;;31.42;13.70;;;11.10;68.40;;;;;;5103480;28;20386;-75
2022/12/21 12:16:27;;;;;;;30.25;15.55;;;11.00;69.20;;;;;;5096028;28;20393;-75
2022/12/21 12:19:14;;;;;;;27.23;9.60;;;11.00;71.20;;;;;;5093070;28;20724;-76
2022/12/21 12:21:58;;;;;;;23.10;9.05;;;11.00;67.80;;;;;;5092190;28;20381;-76
2022/12/21 12:24:40;;;;;;;21.60;8.82;;;11.00;68.70;;;;;;5093999;28;20963;-77
2022/12/21 12:27:24;;;;;;;26.83;8.38;;;11.10;69.00;;;;;;5094076;28;20386;-77
2022/12/21 12:29:52;;;;;;;23.95;7.93;;;11.00;68.80;;;;;;5092730;28;20410;-78
2022/12/21 12:32:36;;;;;;;17.83;7.80;;;11.00;67.50;;;;;;5089835;28;20382;-77
2022/12/21 12:35:13;;;;;;;26.83;8.90;;;10.90;68.50;;;;;;5091276;28;20397;-76
2022/12/21 12:38:05;;;;;;;23.95;10.32;;;10.90;68.80;;;;;;5092439;28;20431;-77
2022/12/21 12:40:58;;;;;;;26.92;11.35;;;10.90;70.30;;;;;;5091608;28;20370;-76
2022/12/21 12:43:27;;;;;;;19.67;9.10;;;10.90;69.20;;;;;;5091174;28;20386;-76
2022/12/21 12:46:24;;;;;;;16.65;6.82;;;11.00;69.60;;;;;;5091660;28;20378;-77
2022/12/21 12:49:11;;;;;;;19.60;7.32;;;10.90;69.00;;;;;;5082513;28;20469;-78
2022/12/21 12:51:49;;;;;;;16.55;7.03;;;10.90;69.20;;;;;;5091167;28;20439;-77
2022/12/21 12:54:36;;;;;;;17.35;6.95;;;10.80;69.70;;;;;;5092130;28;20425;-78
2022/12/21 12:57:22;;;;;;;13.98;5.20;;;10.80;70.40;;;;;;5091323;28;20396;-78
2022/12/21 12:59:58;;;;;;;17.58;5.43;;;10.80;67.50;;;;;;5091384;28;20469;-76
2022/12/21 13:02:42;;;;;;;11.23;4.57;;;10.80;69.20;;;;;;5089329;28;20512;-76